Time;durP1;ratioP1;P1;durP2;ratioP2;P2;SDS_P1;SDS_P2;PMS_P1;PMS_P2;Temp;Humidity;BMP_temperature;BMP_pressure;BME280_temperature;BME280_humidity;BME280_pressure;Samples;Min_cycle;Max_cycle;Signal;HPM_P1;HPM_P2
2024/02/27 00:00:54;;;;;;;2.03;1.60;;;7.00;99.90;;;;;;4249848;27;20134;-57
2024/02/27 00:02:57;;;;;;;7.22;2.42;;;7.00;99.90;;;;;;4231377;28;20985;-58
2024/02/27 00:04:59;;;;;;;3.70;2.10;;;7.00;99.90;;;;;;4250037;27;20248;-57
2024/02/27 00:07:01;;;;;;;1.42;1.33;;;7.00;99.90;;;;;;4250176;27;20045;-58
2024/02/27 00:09:04;;;;;;;1.88;1.52;;;7.00;99.90;;;;;;4251597;27;20054;-58
2024/02/27 00:11:06;;;;;;;0.88;0.82;;;7.00;99.90;;;;;;4251109;27;20533;-58
2024/02/27 00:13:08;;;;;;;1.65;1.17;;;7.00;99.90;;;;;;4250157;27;20449;-57
2024/02/27 00:15:12;;;;;;;0.98;0.80;;;7.10;99.90;;;;;;4249698;27;20441;-57
2024/02/27 00:17:14;;;;;;;1.50;1.20;;;7.10;99.90;;;;;;4249800;27;20488;-58
2024/02/27 00:19:16;;;;;;;1.58;0.82;;;7.10;99.90;;;;;;4249482;27;20039;-57
2024/02/27 00:21:19;;;;;;;3.60;1.25;;;7.10;99.90;;;;;;4230832;28;20573;-57
2024/02/27 00:23:22;;;;;;;3.47;1.42;;;7.10;99.90;;;;;;4249451;27;20116;-57
2024/02/27 00:25:24;;;;;;;2.15;1.40;;;7.10;99.90;;;;;;4249518;27;20126;-57
2024/02/27 00:27:26;;;;;;;3.08;1.30;;;7.10;99.90;;;;;;4249382;27;20043;-58
2024/02/27 00:29:28;;;;;;;2.38;1.02;;;7.10;99.90;;;;;;4250428;27;20475;-63
2024/02/27 00:31:32;;;;;;;2.13;1.90;;;7.10;99.90;;;;;;4251121;27;20119;-58
2024/02/27 00:33:34;;;;;;;1.63;1.35;;;7.10;99.90;;;;;;4250055;27;20111;-58
2024/02/27 00:35:36;;;;;;;1.52;1.30;;;7.10;99.90;;;;;;4249833;27;20039;-57
2024/02/27 00:37:38;;;;;;;2.13;1.45;;;7.20;99.90;;;;;;4249572;27;20476;-57
2024/02/27 00:39:41;;;;;;;1.65;1.23;;;7.20;99.90;;;;;;4251308;27;20411;-57
2024/02/27 00:41:48;;;;;;;5.53;2.25;;;7.10;99.90;;;;;;4251657;27;20085;-56
2024/02/27 00:43:50;;;;;;;2.55;1.65;;;7.10;99.90;;;;;;4249556;27;20396;-58
2024/02/27 00:45:52;;;;;;;9.50;2.63;;;7.10;99.90;;;;;;4249013;27;20143;-59
2024/02/27 00:47:58;;;;;;;7.07;2.33;;;7.10;99.90;;;;;;4248990;27;20062;-58
2024/02/27 00:50:00;;;;;;;3.60;2.13;;;7.00;99.90;;;;;;4248649;27;20468;-57
2024/02/27 00:52:05;;;;;;;3.05;2.00;;;7.00;99.90;;;;;;4248754;27;20480;-57
2024/02/27 00:54:07;;;;;;;1.48;1.20;;;7.00;99.90;;;;;;4248715;27;20053;-58
2024/02/27 00:56:10;;;;;;;3.90;1.80;;;7.00;99.90;;;;;;4248577;27;20053;-58
2024/02/27 00:58:12;;;;;;;5.05;2.28;;;7.00;99.90;;;;;;4249188;27;20043;-57
2024/02/27 01:00:14;;;;;;;6.18;2.38;;;7.00;99.90;;;;;;4249641;27;20043;-59
2024/02/27 01:02:17;;;;;;;3.60;2.63;;;7.00;99.90;;;;;;4250048;27;20070;-57
2024/02/27 01:04:20;;;;;;;4.68;2.70;;;7.00;99.90;;;;;;4248694;27;20047;-57
2024/02/27 01:06:22;;;;;;;4.47;1.85;;;7.00;99.90;;;;;;4248709;27;20043;-58
2024/02/27 01:08:25;;;;;;;2.92;1.58;;;7.10;99.90;;;;;;4248601;27;20047;-57
2024/02/27 01:10:27;;;;;;;6.30;3.00;;;7.10;99.90;;;;;;4248102;27;20051;-57
2024/02/27 01:12:30;;;;;;;3.63;2.00;;;7.00;99.90;;;;;;4248645;27;20043;-57
2024/02/27 01:14:32;;;;;;;4.68;3.00;;;7.10;99.90;;;;;;4248284;27;20051;-57
2024/02/27 01:16:36;;;;;;;2.38;2.00;;;7.20;99.90;;;;;;4249875;27;20054;-59
2024/02/27 01:18:38;;;;;;;3.47;1.50;;;7.10;99.90;;;;;;4249015;27;20449;-58
2024/02/27 01:20:41;;;;;;;3.50;1.70;;;7.10;99.90;;;;;;4249243;27;20049;-58
2024/02/27 01:22:44;;;;;;;2.08;1.55;;;7.10;99.90;;;;;;4230929;28;20497;-57
2024/02/27 01:24:46;;;;;;;4.43;2.53;;;7.10;99.90;;;;;;4248544;27;20045;-57
2024/02/27 01:26:49;;;;;;;3.53;2.17;;;7.00;99.90;;;;;;4230397;28;20043;-57
2024/02/27 01:28:51;;;;;;;1.92;1.77;;;7.00;99.90;;;;;;4248374;27;20051;-56
2024/02/27 01:30:53;;;;;;;2.45;1.73;;;7.00;99.90;;;;;;4248656;27;20053;-57
2024/02/27 01:32:55;;;;;;;2.58;1.88;;;7.00;99.90;;;;;;4248253;27;20051;-58
2024/02/27 01:34:58;;;;;;;3.92;1.83;;;7.00;99.90;;;;;;4247956;27;20051;-59
2024/02/27 01:37:02;;;;;;;4.18;2.47;;;7.00;99.90;;;;;;4248093;27;20089;-57
2024/02/27 01:39:08;;;;;;;6.32;1.92;;;7.00;99.90;;;;;;4248120;27;20043;-57
2024/02/27 01:41:10;;;;;;;2.78;2.10;;;7.00;99.90;;;;;;4247951;27;20039;-57
2024/02/27 01:43:22;;;;;;;2.80;1.50;;;7.00;99.90;;;;;;4247709;27;20053;-58
2024/02/27 01:45:26;;;;;;;3.83;1.95;;;6.90;99.90;;;;;;4248193;27;20098;-58
2024/02/27 01:47:29;;;;;;;2.75;2.25;;;6.90;99.90;;;;;;4247615;27;20103;-60
2024/02/27 01:49:33;;;;;;;5.35;2.13;;;6.90;99.90;;;;;;4248027;27;20084;-57
2024/02/27 01:51:36;;;;;;;4.22;1.50;;;6.90;99.90;;;;;;4248206;27;20066;-61
2024/02/27 01:53:41;;;;;;;2.58;2.38;;;6.90;99.90;;;;;;4247764;27;20050;-57
2024/02/27 01:55:43;;;;;;;2.60;2.03;;;6.90;99.90;;;;;;4247652;27;20418;-58
2024/02/27 01:57:47;;;;;;;2.83;2.40;;;6.90;99.90;;;;;;4247889;27;20039;-59
2024/02/27 01:59:49;;;;;;;3.70;2.38;;;6.90;99.90;;;;;;4247703;27;20043;-57
2024/02/27 02:01:52;;;;;;;3.95;2.40;;;6.90;99.90;;;;;;4248043;27;20401;-57
2024/02/27 02:03:56;;;;;;;2.33;2.13;;;6.90;99.90;;;;;;4229774;28;20441;-60
2024/02/27 02:05:59;;;;;;;2.90;2.10;;;6.90;99.90;;;;;;4250208;27;20461;-58
2024/02/27 02:08:02;;;;;;;3.80;1.95;;;6.90;99.90;;;;;;4249486;28;20039;-59
2024/02/27 02:10:06;;;;;;;1.35;1.25;;;6.90;99.90;;;;;;4248369;28;20141;-57
2024/02/27 02:12:08;;;;;;;2.70;2.25;;;7.00;99.90;;;;;;4248264;28;20059;-58
2024/02/27 02:14:12;;;;;;;8.25;3.03;;;7.00;99.90;;;;;;4248149;28;20128;-57
2024/02/27 02:16:14;;;;;;;2.42;1.17;;;7.00;99.90;;;;;;4248035;28;20057;-58
2024/02/27 02:18:16;;;;;;;3.40;1.70;;;7.00;99.90;;;;;;4247517;28;20092;-57
2024/02/27 02:20:20;;;;;;;2.33;1.73;;;7.00;99.90;;;;;;4247768;28;20048;-58
2024/02/27 02:22:22;;;;;;;4.38;1.55;;;6.90;99.90;;;;;;4247654;28;20539;-57
2024/02/27 02:24:28;;;;;;;2.90;1.75;;;7.00;99.90;;;;;;4248022;28;20487;-57
2024/02/27 02:26:31;;;;;;;1.77;1.65;;;7.00;99.90;;;;;;4247883;28;20047;-58
2024/02/27 02:28:33;;;;;;;5.43;2.05;;;7.00;99.90;;;;;;4248080;28;20178;-59
2024/02/27 02:30:36;;;;;;;2.03;1.85;;;7.10;99.90;;;;;;4249649;28;20047;-58
2024/02/27 02:32:46;;;;;;;2.35;1.85;;;7.10;99.90;;;;;;4249229;28;20043;-58
2024/02/27 02:34:49;;;;;;;3.25;2.33;;;7.10;99.90;;;;;;4249819;28;20446;-58
2024/02/27 02:36:52;;;;;;;2.35;1.42;;;7.10;99.90;;;;;;4248252;28;20039;-59
2024/02/27 02:38:54;;;;;;;1.80;1.42;;;7.10;99.90;;;;;;4247696;27;20491;-57
2024/02/27 02:40:56;;;;;;;3.72;1.90;;;7.10;99.90;;;;;;4248581;28;20035;-58
2024/02/27 02:42:58;;;;;;;3.70;2.35;;;7.10;99.90;;;;;;4230948;28;20077;-58
2024/02/27 02:45:00;;;;;;;3.75;2.13;;;7.10;99.90;;;;;;4248092;28;20126;-58
2024/02/27 02:47:03;;;;;;;3.67;1.55;;;7.10;99.90;;;;;;4247624;28;20047;-57
2024/02/27 02:49:05;;;;;;;2.45;1.48;;;7.10;99.90;;;;;;4247731;28;20430;-57
2024/02/27 02:51:07;;;;;;;4.13;2.58;;;7.10;99.90;;;;;;4247838;28;20039;-58
2024/02/27 02:53:11;;;;;;;2.33;1.75;;;7.10;99.90;;;;;;4247611;28;20047;-58
2024/02/27 02:55:14;;;;;;;2.08;1.83;;;7.10;99.90;;;;;;4248647;27;20108;-57
2024/02/27 02:57:17;;;;;;;5.15;2.33;;;7.10;99.90;;;;;;4250613;27;20043;-57
2024/02/27 02:59:21;;;;;;;4.82;2.63;;;7.00;99.90;;;;;;4250851;27;20549;-57
2024/02/27 03:01:23;;;;;;;2.47;2.28;;;7.00;99.90;;;;;;4250818;27;20043;-57
2024/02/27 03:03:25;;;;;;;3.65;1.35;;;7.00;99.90;;;;;;4250729;27;20046;-58
2024/02/27 03:05:28;;;;;;;3.95;2.22;;;7.00;99.90;;;;;;4250555;27;20125;-57
2024/02/27 03:07:29;;;;;;;6.50;2.20;;;6.90;99.90;;;;;;4250501;27;20039;-57
2024/02/27 03:09:33;;;;;;;6.53;2.47;;;6.80;99.90;;;;;;4250639;27;20051;-57
2024/02/27 03:11:35;;;;;;;2.92;2.17;;;6.80;99.90;;;;;;4250648;27;20046;-58
2024/02/27 03:13:38;;;;;;;4.55;2.15;;;6.90;99.90;;;;;;4250480;27;20043;-57
2024/02/27 03:15:40;;;;;;;7.28;3.00;;;6.80;99.90;;;;;;4250083;27;20043;-57
2024/02/27 03:17:42;;;;;;;2.65;1.85;;;6.80;99.90;;;;;;4250660;27;20118;-58
2024/02/27 03:19:44;;;;;;;3.17;2.60;;;6.80;99.90;;;;;;4252716;27;20057;-58
2024/02/27 03:21:47;;;;;;;2.53;2.33;;;6.80;99.90;;;;;;4253349;27;20116;-61
2024/02/27 03:23:49;;;;;;;2.42;1.65;;;6.80;99.90;;;;;;4251594;27;20134;-57
2024/02/27 03:25:53;;;;;;;2.40;1.90;;;6.80;99.90;;;;;;4251756;27;20560;-57
2024/02/27 03:27:55;;;;;;;1.65;1.35;;;6.90;99.90;;;;;;4250338;27;20040;-57
2024/02/27 03:29:58;;;;;;;6.60;2.75;;;6.80;99.90;;;;;;4249816;27;20057;-58
2024/02/27 03:32:00;;;;;;;2.70;1.83;;;6.80;99.90;;;;;;4250085;27;20047;-57
2024/02/27 03:34:02;;;;;;;2.72;1.20;;;6.90;99.90;;;;;;4250060;27;20469;-57
2024/02/27 03:36:05;;;;;;;6.03;1.60;;;6.80;99.90;;;;;;4249892;27;20047;-57
2024/02/27 03:38:08;;;;;;;5.00;2.42;;;6.90;99.90;;;;;;4250114;27;20090;-57
2024/02/27 03:40:11;;;;;;;2.25;1.40;;;6.80;99.90;;;;;;4250062;27;20130;-57
2024/02/27 03:42:15;;;;;;;2.60;2.40;;;6.80;99.90;;;;;;4249891;27;20070;-57
2024/02/27 03:44:17;;;;;;;3.05;2.33;;;6.80;99.90;;;;;;4249783;27;20096;-57
2024/02/27 03:46:19;;;;;;;2.28;1.85;;;6.80;99.90;;;;;;4250284;27;20043;-56
2024/02/27 03:48:21;;;;;;;4.07;2.17;;;6.80;99.90;;;;;;4250017;27;20055;-57
2024/02/27 03:50:23;;;;;;;3.28;1.77;;;6.70;99.90;;;;;;4250406;27;20047;-58
2024/02/27 03:52:25;;;;;;;2.55;1.77;;;6.80;99.90;;;;;;4250540;27;20070;-57
2024/02/27 03:54:27;;;;;;;5.20;2.30;;;6.70;99.90;;;;;;4250116;27;20047;-57
2024/02/27 03:56:29;;;;;;;4.80;1.98;;;6.70;99.90;;;;;;4249832;27;20057;-57
2024/02/27 03:58:34;;;;;;;2.33;2.03;;;6.70;99.90;;;;;;4249619;27;20039;-57
2024/02/27 04:00:36;;;;;;;2.97;2.10;;;6.70;99.90;;;;;;4249800;27;20485;-57
2024/02/27 04:02:42;;;;;;;2.47;2.28;;;6.70;99.90;;;;;;4249760;27;20049;-57
2024/02/27 04:04:44;;;;;;;1.33;1.20;;;6.70;99.90;;;;;;4249607;27;20113;-61
2024/02/27 04:06:46;;;;;;;4.60;2.65;;;6.70;99.90;;;;;;4249099;27;20047;-58
2024/02/27 04:08:48;;;;;;;4.45;1.45;;;6.70;99.90;;;;;;4249546;27;20054;-57
2024/02/27 04:10:51;;;;;;;4.32;2.10;;;6.70;99.90;;;;;;4249753;27;20121;-57
2024/02/27 04:12:53;;;;;;;18.60;3.22;;;6.70;99.90;;;;;;4249034;27;20043;-57
2024/02/27 04:14:57;;;;;;;3.53;2.25;;;6.70;99.90;;;;;;4249296;27;20046;-57
2024/02/27 04:17:00;;;;;;;6.40;2.03;;;6.80;99.90;;;;;;4249534;27;20054;-57
2024/02/27 04:19:02;;;;;;;2.45;1.45;;;6.80;99.90;;;;;;4249708;27;20051;-57
2024/02/27 04:21:04;;;;;;;1.90;1.63;;;6.80;99.90;;;;;;4231570;28;20071;-57
2024/02/27 04:23:07;;;;;;;4.32;1.70;;;6.70;99.90;;;;;;4250350;27;20126;-58
2024/02/27 04:25:10;;;;;;;4.00;1.83;;;6.70;99.90;;;;;;4250816;27;20545;-57
2024/02/27 04:27:11;;;;;;;2.60;1.92;;;6.70;99.90;;;;;;4249679;27;20049;-57
2024/02/27 04:29:14;;;;;;;5.60;2.70;;;6.70;99.90;;;;;;4249373;27;20047;-57
2024/02/27 04:31:17;;;;;;;5.30;2.85;;;6.70;99.90;;;;;;4249613;27;20053;-57
2024/02/27 04:33:19;;;;;;;3.00;1.75;;;6.80;99.90;;;;;;4248937;27;20428;-57
2024/02/27 04:35:23;;;;;;;4.35;1.77;;;6.70;99.90;;;;;;4248898;27;20043;-57
2024/02/27 04:37:25;;;;;;;2.20;1.30;;;6.80;99.90;;;;;;4249329;27;20457;-57
2024/02/27 04:39:27;;;;;;;1.88;1.20;;;6.80;99.90;;;;;;4248975;27;20473;-57
2024/02/27 04:41:29;;;;;;;4.03;2.70;;;6.80;99.90;;;;;;4248772;27;20047;-58
2024/02/27 04:43:31;;;;;;;7.47;2.17;;;6.80;99.90;;;;;;4248902;27;20043;-57
2024/02/27 04:45:37;;;;;;;4.25;2.65;;;6.80;99.90;;;;;;4249008;27;20092;-57
2024/02/27 04:47:41;;;;;;;2.13;1.80;;;6.80;99.90;;;;;;4249193;27;20051;-57
2024/02/27 04:49:44;;;;;;;4.15;2.13;;;6.90;99.90;;;;;;4248859;27;20050;-57
2024/02/27 04:51:46;;;;;;;5.00;3.53;;;6.90;99.90;;;;;;4248937;27;20039;-58
2024/02/27 04:53:50;;;;;;;4.72;2.22;;;6.90;99.90;;;;;;4249300;27;20047;-61
2024/02/27 04:55:52;;;;;;;2.42;1.63;;;6.90;99.90;;;;;;4248785;27;20059;-57
2024/02/27 04:57:54;;;;;;;1.63;1.40;;;6.90;99.90;;;;;;4248546;27;20051;-57
2024/02/27 04:59:56;;;;;;;4.18;2.63;;;6.90;99.90;;;;;;4249254;27;20484;-57
2024/02/27 05:01:59;;;;;;;3.30;2.15;;;6.80;99.90;;;;;;4250404;27;20055;-58
2024/02/27 05:04:02;;;;;;;2.92;1.58;;;6.80;99.90;;;;;;4249151;27;20122;-58
2024/02/27 05:06:04;;;;;;;2.63;2.03;;;6.80;99.90;;;;;;4249154;27;20047;-56
2024/02/27 05:08:07;;;;;;;2.25;1.48;;;6.80;99.90;;;;;;4249450;27;20047;-57
2024/02/27 05:10:09;;;;;;;2.75;1.63;;;6.80;99.90;;;;;;4232796;28;20055;-63
2024/02/27 05:12:12;;;;;;;6.20;2.28;;;6.80;99.90;;;;;;4250824;27;20043;-58
2024/02/27 05:14:14;;;;;;;3.58;1.27;;;6.80;99.90;;;;;;4250843;27;20441;-62
2024/02/27 05:16:16;;;;;;;4.22;1.98;;;6.70;99.90;;;;;;4250503;27;20128;-61
2024/02/27 05:18:18;;;;;;;2.67;1.77;;;6.80;99.90;;;;;;4248324;27;20515;-57
2024/02/27 05:20:23;;;;;;;2.38;1.85;;;6.80;99.90;;;;;;4249029;27;20078;-57
2024/02/27 05:22:25;;;;;;;2.78;1.70;;;6.80;99.90;;;;;;4248843;27;20047;-57
2024/02/27 05:24:27;;;;;;;2.63;2.00;;;6.70;99.90;;;;;;4249452;27;20047;-60
2024/02/27 05:26:30;;;;;;;2.40;1.58;;;6.80;99.90;;;;;;4248704;27;20058;-57
2024/02/27 05:28:32;;;;;;;3.05;1.85;;;6.80;99.90;;;;;;4250482;27;20074;-66
2024/02/27 05:30:35;;;;;;;4.10;1.55;;;6.80;99.90;;;;;;4251396;27;20104;-66
2024/02/27 05:32:37;;;;;;;1.63;1.17;;;6.80;99.90;;;;;;4251415;27;20437;-60
2024/02/27 05:34:39;;;;;;;2.55;1.85;;;6.80;99.90;;;;;;4249588;27;20047;-58
2024/02/27 05:36:43;;;;;;;4.18;2.92;;;6.80;99.90;;;;;;4248674;27;20047;-58
2024/02/27 05:38:46;;;;;;;4.82;2.30;;;6.70;99.90;;;;;;4248570;27;20080;-57
2024/02/27 05:40:48;;;;;;;2.25;1.98;;;6.80;99.90;;;;;;4248161;27;20096;-57
2024/02/27 05:42:50;;;;;;;4.35;1.48;;;6.70;99.90;;;;;;4248150;27;20047;-57
2024/02/27 05:44:52;;;;;;;2.10;0.93;;;6.70;99.90;;;;;;4247949;27;20051;-57
2024/02/27 05:46:54;;;;;;;2.80;1.17;;;6.70;99.90;;;;;;4248118;27;20130;-57
2024/02/27 05:48:56;;;;;;;4.22;1.92;;;6.70;99.90;;;;;;4248092;27;20434;-58
2024/02/27 05:50:59;;;;;;;3.20;1.85;;;6.70;99.90;;;;;;4229782;28;20043;-64
2024/02/27 05:53:05;;;;;;;2.92;1.77;;;6.70;99.90;;;;;;4248486;27;20057;-57
2024/02/27 05:55:08;;;;;;;3.25;2.03;;;6.80;99.90;;;;;;4247803;27;20130;-57
2024/02/27 05:57:11;;;;;;;3.63;1.92;;;6.80;99.90;;;;;;4229767;28;20116;-57
2024/02/27 05:59:13;;;;;;;2.00;1.65;;;6.80;99.90;;;;;;4250683;27;20039;-62
2024/02/27 06:01:20;;;;;;;2.80;1.75;;;6.90;99.90;;;;;;4233157;27;20094;-58
2024/02/27 06:03:23;;;;;;;3.70;2.65;;;6.90;99.90;;;;;;4250100;27;20040;-61
2024/02/27 06:05:25;;;;;;;3.50;1.67;;;6.80;99.90;;;;;;4249939;27;20051;-59
2024/02/27 06:07:29;;;;;;;2.50;1.30;;;6.80;99.90;;;;;;4248587;27;20112;-57
2024/02/27 06:09:34;;;;;;;3.03;1.42;;;6.70;99.90;;;;;;4247789;28;20129;-57
2024/02/27 06:11:36;;;;;;;2.20;1.67;;;6.70;99.90;;;;;;4248354;28;20054;-56
2024/02/27 06:13:38;;;;;;;2.58;1.45;;;6.70;99.90;;;;;;4247864;28;20404;-57
2024/02/27 06:15:44;;;;;;;2.05;1.35;;;6.70;99.90;;;;;;4248107;28;20205;-57
2024/02/27 06:17:46;;;;;;;3.05;1.50;;;6.70;99.90;;;;;;4248019;28;20054;-56
2024/02/27 06:19:55;;;;;;;6.40;2.35;;;6.80;99.90;;;;;;4248107;28;20473;-57
2024/02/27 06:24:28;;;;;;;3.28;1.60;;;6.70;99.90;;;;;;4233778;28;20074;-57
2024/02/27 06:26:34;;;;;;;10.38;2.00;;;6.60;99.90;;;;;;4229208;28;20108;-57
2024/02/27 06:28:36;;;;;;;2.47;1.45;;;6.60;99.90;;;;;;4247828;27;20062;-57
2024/02/27 06:30:39;;;;;;;3.22;1.70;;;6.60;99.90;;;;;;4251181;27;20408;-57
2024/02/27 06:32:41;;;;;;;2.38;1.75;;;6.60;99.90;;;;;;4251174;27;20046;-57
2024/02/27 06:34:47;;;;;;;3.67;1.92;;;6.60;99.90;;;;;;4251435;27;20092;-57
2024/02/27 06:36:50;;;;;;;6.57;2.38;;;6.70;99.90;;;;;;4251031;27;20043;-57
2024/02/27 06:38:55;;;;;;;3.65;1.88;;;6.60;99.90;;;;;;4232494;28;20125;-57
2024/02/27 06:41:00;;;;;;;2.38;1.30;;;6.50;99.90;;;;;;4251266;27;20134;-58
2024/02/27 06:43:05;;;;;;;3.25;1.92;;;6.50;99.90;;;;;;4251291;27;20484;-57
2024/02/27 06:45:08;;;;;;;3.22;1.67;;;6.50;99.90;;;;;;4251122;27;20078;-56
2024/02/27 06:47:10;;;;;;;1.98;1.75;;;6.50;99.90;;;;;;4251048;27;20051;-57
2024/02/27 06:49:12;;;;;;;3.33;1.80;;;6.50;99.90;;;;;;4251023;27;20327;-57
2024/02/27 06:51:23;;;;;;;2.55;1.33;;;6.60;99.90;;;;;;4250982;27;20043;-57
2024/02/27 06:53:27;;;;;;;3.35;1.75;;;6.50;99.90;;;;;;4231860;28;20425;-57
2024/02/27 06:55:29;;;;;;;4.32;2.05;;;6.50;99.90;;;;;;4232450;28;20139;-57
2024/02/27 06:57:34;;;;;;;3.80;1.98;;;6.50;99.90;;;;;;4250591;27;20070;-57
2024/02/27 06:59:38;;;;;;;3.10;1.65;;;6.50;99.90;;;;;;4251056;27;20535;-57
2024/02/27 07:01:40;;;;;;;4.07;1.80;;;6.50;99.90;;;;;;4250887;27;20047;-57
2024/02/27 07:03:43;;;;;;;4.18;2.05;;;6.40;99.90;;;;;;4251001;27;20545;-56
2024/02/27 07:05:45;;;;;;;2.60;2.03;;;6.40;99.90;;;;;;4250770;27;20130;-58
2024/02/27 07:07:55;;;;;;;6.93;2.08;;;6.40;99.90;;;;;;4250679;27;20070;-57
2024/02/27 07:09:57;;;;;;;2.22;1.75;;;6.50;99.90;;;;;;4250668;27;20043;-57
2024/02/27 07:11:59;;;;;;;2.65;1.77;;;6.50;99.90;;;;;;4251432;27;20039;-57
2024/02/27 07:14:02;;;;;;;7.32;2.38;;;6.50;99.90;;;;;;4234716;28;20141;-57
2024/02/27 07:16:06;;;;;;;4.57;2.17;;;6.60;99.90;;;;;;4251451;27;20346;-57
2024/02/27 07:18:08;;;;;;;3.75;2.25;;;6.60;99.90;;;;;;4250601;27;20043;-58
2024/02/27 07:20:11;;;;;;;3.58;2.20;;;6.60;99.90;;;;;;4250633;27;20056;-56
2024/02/27 07:22:13;;;;;;;2.55;1.88;;;6.60;99.90;;;;;;4250594;27;20471;-57
2024/02/27 07:24:15;;;;;;;2.72;2.20;;;6.50;99.90;;;;;;4250996;27;20149;-57
2024/02/27 07:26:19;;;;;;;2.10;1.40;;;6.60;99.90;;;;;;4251077;27;20043;-57
2024/02/27 07:28:22;;;;;;;2.50;1.83;;;6.60;99.90;;;;;;4250542;27;20430;-57
2024/02/27 07:30:34;;;;;;;2.45;2.10;;;6.60;99.90;;;;;;4250142;27;20074;-57
2024/02/27 07:32:37;;;;;;;3.85;1.88;;;6.60;99.90;;;;;;4250355;27;20134;-57
2024/02/27 07:34:40;;;;;;;2.33;1.77;;;6.60;99.90;;;;;;4250111;27;20080;-57
2024/02/27 07:36:43;;;;;;;3.38;2.38;;;6.70;99.90;;;;;;4249990;27;20126;-59
2024/02/27 07:38:45;;;;;;;2.28;1.88;;;6.80;99.90;;;;;;4250277;27;20039;-58
2024/02/27 07:40:47;;;;;;;4.45;3.17;;;6.80;99.90;;;;;;4249486;27;20067;-57
2024/02/27 07:42:49;;;;;;;3.20;2.67;;;6.80;99.90;;;;;;4250595;27;20552;-56
2024/02/27 07:44:51;;;;;;;5.45;2.13;;;6.80;99.90;;;;;;4251737;27;20043;-56
2024/02/27 07:46:54;;;;;;;3.47;1.73;;;6.80;99.90;;;;;;4251467;27;20043;-57
2024/02/27 07:48:57;;;;;;;6.90;2.35;;;6.80;99.90;;;;;;4250334;27;20039;-58
2024/02/27 07:50:59;;;;;;;4.95;3.05;;;6.80;99.90;;;;;;4249655;27;20043;-58
2024/02/27 07:53:02;;;;;;;3.03;2.30;;;6.80;99.90;;;;;;4250278;27;20039;-61
2024/02/27 07:55:04;;;;;;;2.65;2.13;;;6.80;99.90;;;;;;4249955;27;20419;-57
2024/02/27 07:57:06;;;;;;;3.58;1.70;;;6.80;99.90;;;;;;4250622;27;20545;-59
2024/02/27 07:59:14;;;;;;;2.50;1.55;;;6.80;99.90;;;;;;4250352;27;20403;-57
2024/02/27 08:01:16;;;;;;;4.05;2.17;;;6.80;99.90;;;;;;4250710;27;20048;-57
2024/02/27 08:03:20;;;;;;;3.55;2.15;;;6.90;99.90;;;;;;4232735;28;20047;-57
2024/02/27 08:05:25;;;;;;;4.13;2.55;;;7.00;99.90;;;;;;4249744;27;20065;-58
2024/02/27 08:07:27;;;;;;;3.42;2.03;;;7.00;99.90;;;;;;4250648;27;20047;-57
2024/02/27 08:09:30;;;;;;;8.70;3.42;;;7.00;99.90;;;;;;4250231;27;20507;-57
2024/02/27 08:11:32;;;;;;;1.50;1.40;;;7.00;99.90;;;;;;4231769;28;20043;-57
2024/02/27 08:13:35;;;;;;;6.63;3.05;;;7.00;99.90;;;;;;4250123;27;20266;-57
2024/02/27 08:15:37;;;;;;;2.33;2.08;;;6.90;99.90;;;;;;4250086;27;20043;-58
2024/02/27 08:17:39;;;;;;;2.90;2.15;;;6.90;99.90;;;;;;4250218;27;20054;-57
2024/02/27 08:19:43;;;;;;;4.13;2.00;;;6.90;99.90;;;;;;4249475;27;20088;-57
2024/02/27 08:21:46;;;;;;;3.10;2.10;;;7.00;99.90;;;;;;4231754;28;20044;-56
2024/02/27 08:23:48;;;;;;;3.30;2.05;;;7.00;99.90;;;;;;4249743;27;20104;-57
2024/02/27 08:25:51;;;;;;;3.90;1.98;;;6.90;99.90;;;;;;4249414;27;20518;-57
2024/02/27 08:27:52;;;;;;;2.28;1.77;;;7.00;99.90;;;;;;4250607;27;20045;-59
2024/02/27 08:29:55;;;;;;;3.63;2.05;;;7.00;99.90;;;;;;4250706;27;20054;-64
2024/02/27 08:31:57;;;;;;;5.07;2.45;;;6.90;99.90;;;;;;4251079;27;20047;-58
2024/02/27 08:34:04;;;;;;;2.95;2.00;;;6.80;99.90;;;;;;4249979;27;20043;-57
2024/02/27 08:36:07;;;;;;;3.60;2.28;;;6.90;99.90;;;;;;4249400;27;20481;-57
2024/02/27 08:38:10;;;;;;;4.35;2.47;;;7.00;99.90;;;;;;4251235;27;20043;-57
2024/02/27 08:40:14;;;;;;;;;;;6.90;99.90;;;;;;4252230;27;20050;-60
2024/02/27 08:42:16;;;;;;;3.10;2.33;;;7.00;99.90;;;;;;4250611;27;19942;-58
2024/02/27 08:44:19;;;;;;;2.72;1.92;;;7.00;99.90;;;;;;4249472;27;20112;-57
2024/02/27 08:46:21;;;;;;;2.35;1.90;;;7.10;99.90;;;;;;4249029;27;20051;-57
2024/02/27 08:48:23;;;;;;;4.22;2.33;;;7.00;99.90;;;;;;4248740;27;20381;-57
2024/02/27 08:50:26;;;;;;;3.17;1.75;;;7.10;99.90;;;;;;4248662;27;20047;-57
2024/02/27 08:52:28;;;;;;;6.75;3.10;;;7.10;99.90;;;;;;4248844;27;20043;-57
2024/02/27 08:54:31;;;;;;;2.60;1.75;;;7.10;99.90;;;;;;4248722;27;20481;-57
2024/02/27 08:56:34;;;;;;;2.28;1.80;;;7.10;99.90;;;;;;4248772;27;20055;-57
2024/02/27 08:58:36;;;;;;;2.30;1.45;;;7.10;99.90;;;;;;4248843;27;20122;-57
2024/02/27 09:00:39;;;;;;;3.00;1.80;;;7.10;99.90;;;;;;4248810;27;20412;-57
2024/02/27 09:02:42;;;;;;;6.13;2.47;;;7.20;99.90;;;;;;4248156;27;20205;-57
2024/02/27 09:04:45;;;;;;;3.85;1.90;;;7.20;99.90;;;;;;4248418;27;20126;-56
2024/02/27 09:06:47;;;;;;;4.78;1.50;;;7.20;99.90;;;;;;4248778;27;20043;-57
2024/02/27 09:08:49;;;;;;;5.55;2.50;;;7.20;99.90;;;;;;4248840;27;20444;-58
2024/02/27 09:10:52;;;;;;;5.68;1.88;;;7.20;99.90;;;;;;4248410;27;20053;-57
2024/02/27 09:12:55;;;;;;;2.90;2.17;;;7.20;99.90;;;;;;4248666;27;20039;-57
2024/02/27 09:14:57;;;;;;;2.47;1.98;;;7.30;99.90;;;;;;4248247;27;20043;-57
2024/02/27 09:16:59;;;;;;;3.97;2.03;;;7.10;99.90;;;;;;4248238;27;20074;-58
2024/02/27 09:19:01;;;;;;;3.05;1.70;;;7.10;99.90;;;;;;4230177;28;20058;-57
2024/02/27 09:21:05;;;;;;;4.82;2.33;;;7.00;99.90;;;;;;4248223;27;20118;-57
2024/02/27 09:23:07;;;;;;;3.70;2.50;;;7.10;99.90;;;;;;4248450;27;20104;-57
2024/02/27 09:25:10;;;;;;;3.53;2.08;;;7.10;99.90;;;;;;4248350;27;20062;-57
2024/02/27 09:27:14;;;;;;;2.55;1.58;;;7.00;99.90;;;;;;4248299;27;20506;-57
2024/02/27 09:29:19;;;;;;;5.88;2.28;;;7.00;99.90;;;;;;4248245;27;20067;-58
2024/02/27 09:31:21;;;;;;;3.20;1.83;;;7.10;99.90;;;;;;4248647;27;20043;-58
2024/02/27 09:33:33;;;;;;;6.32;2.72;;;7.10;99.90;;;;;;4248692;27;20457;-59
2024/02/27 09:35:35;;;;;;;6.90;2.35;;;7.10;99.90;;;;;;4248086;27;20043;-57
2024/02/27 09:37:37;;;;;;;4.40;2.33;;;7.00;99.90;;;;;;4248465;27;20044;-57
2024/02/27 09:39:39;;;;;;;2.65;1.75;;;7.10;99.90;;;;;;4248089;27;20103;-57
2024/02/27 09:42:06;;;;;;;4.07;1.75;;;7.10;99.90;;;;;;4248146;27;20055;-57
2024/02/27 09:44:10;;;;;;;6.35;2.88;;;7.30;99.90;;;;;;4229600;28;20047;-56
2024/02/27 09:46:12;;;;;;;2.30;1.83;;;7.40;99.90;;;;;;4247810;27;20435;-58
2024/02/27 09:48:18;;;;;;;3.28;2.13;;;7.30;99.90;;;;;;4247914;27;20377;-57
2024/02/27 09:50:25;;;;;;;3.13;1.63;;;7.40;99.90;;;;;;4247858;27;20535;-56
2024/02/27 09:52:28;;;;;;;2.47;1.77;;;7.30;99.90;;;;;;4247993;27;20047;-57
2024/02/27 09:54:31;;;;;;;1.65;1.55;;;7.30;99.90;;;;;;4247956;27;20047;-57
2024/02/27 09:56:33;;;;;;;4.30;2.67;;;7.40;99.90;;;;;;4247664;27;20099;-57
2024/02/27 09:58:38;;;;;;;3.97;2.42;;;7.50;99.90;;;;;;4247940;27;20071;-58
2024/02/27 10:00:41;;;;;;;1.98;1.50;;;7.50;99.90;;;;;;4247438;27;20130;-57
2024/02/27 10:02:46;;;;;;;1.40;1.27;;;7.60;99.90;;;;;;4247820;27;20050;-57
2024/02/27 10:04:49;;;;;;;3.67;2.67;;;7.70;99.90;;;;;;4247280;27;20043;-58
2024/02/27 10:06:52;;;;;;;5.05;2.35;;;7.70;99.90;;;;;;4247763;27;20544;-57
2024/02/27 10:08:56;;;;;;;4.78;2.63;;;7.70;99.90;;;;;;4247917;27;20039;-57
2024/02/27 10:11:02;;;;;;;2.42;2.03;;;7.80;99.90;;;;;;4247792;27;20051;-58
2024/02/27 10:13:04;;;;;;;1.75;1.20;;;7.80;99.90;;;;;;4247835;28;20043;-57
2024/02/27 10:15:07;;;;;;;4.85;1.90;;;7.90;99.90;;;;;;4247422;28;20039;-57
2024/02/27 10:17:11;;;;;;;5.55;3.33;;;7.90;99.90;;;;;;4247811;28;20496;-58
2024/02/27 10:19:12;;;;;;;3.20;1.65;;;7.90;99.90;;;;;;4247810;28;20058;-57
2024/02/27 10:21:17;;;;;;;3.35;2.10;;;8.00;99.90;;;;;;4229250;28;20502;-57
2024/02/27 10:23:19;;;;;;;2.77;1.40;;;8.00;99.90;;;;;;4247804;28;20039;-57
2024/02/27 10:25:25;;;;;;;2.15;1.10;;;8.10;99.90;;;;;;4247588;28;20085;-57
2024/02/27 10:27:31;;;;;;;1.50;1.20;;;8.10;99.90;;;;;;4247689;28;20067;-57
2024/02/27 10:29:34;;;;;;;3.13;1.00;;;8.20;99.90;;;;;;4247785;28;20457;-58
2024/02/27 10:31:38;;;;;;;2.35;1.63;;;8.30;99.90;;;;;;4248070;28;20055;-57
2024/02/27 10:33:41;;;;;;;2.83;2.55;;;8.40;99.90;;;;;;4248355;28;20772;-58
2024/02/27 10:35:47;;;;;;;2.65;1.45;;;8.50;99.90;;;;;;4248203;28;20058;-57
2024/02/27 10:37:50;;;;;;;1.85;1.17;;;8.60;99.90;;;;;;4247674;28;20048;-57
2024/02/27 10:39:56;;;;;;;2.70;1.25;;;8.60;99.90;;;;;;4264858;27;20069;-57
2024/02/27 10:41:58;;;;;;;1.58;1.38;;;8.70;99.90;;;;;;4264634;27;20042;-57
2024/02/27 10:44:01;;;;;;;4.35;2.20;;;8.70;99.90;;;;;;4245958;28;20074;-57
2024/02/27 10:46:15;;;;;;;1.42;1.08;;;8.70;99.90;;;;;;4264711;27;20095;-57
2024/02/27 10:48:17;;;;;;;2.10;1.13;;;8.80;99.90;;;;;;4264768;27;20125;-58
2024/02/27 10:50:32;;;;;;;3.13;1.00;;;8.80;99.90;;;;;;4248274;27;20043;-57
2024/02/27 10:52:35;;;;;;;1.92;1.20;;;8.80;99.90;;;;;;4264643;27;20453;-57